Time;durP1;ratioP1;P1;durP2;ratioP2;P2;SDS_P1;SDS_P2;PMS_P1;PMS_P2;Temp;Humidity;BMP_temperature;BMP_pressure;BME280_temperature;BME280_humidity;BME280_pressure;Samples;Min_cycle;Max_cycle;Signal;HPM_P1;HPM_P2
2022/06/28 00:02:05;;;;;;;15.13;5.28;;;;;;;;;;6265670;28;20061;-76
2022/06/28 00:05:09;;;;;;;24.58;4.28;;;;;;;;;;6258537;28;20057;-76
2022/06/28 00:08:12;;;;;;;11.18;4.05;;;;;;;;;;6261192;28;20112;-75
2022/06/28 00:11:14;;;;;;;15.68;4.30;;;;;;;;;;6258371;28;20336;-76
2022/06/28 00:17:35;;;;;;;16.63;4.57;;;;;;;;;;6259346;28;20104;-76
2022/06/28 00:20:37;;;;;;;18.50;4.47;;;;;;;;;;6262629;28;21102;-76
2022/06/28 00:23:42;;;;;;;21.13;4.53;;;;;;;;;;6260099;28;20072;-76
2022/06/28 00:26:45;;;;;;;20.80;4.63;;;;;;;;;;6255506;28;20075;-76
2022/06/28 00:29:47;;;;;;;20.40;4.18;;;;;;;;;;6261367;28;20095;-76
2022/06/28 00:32:49;;;;;;;19.13;4.65;;;;;;;;;;6257816;28;20232;-76
2022/06/28 00:35:51;;;;;;;17.00;4.82;;;;;;;;;;6255990;28;20057;-77
2022/06/28 00:38:55;;;;;;;16.88;5.70;;;;;;;;;;6254379;28;20053;-76
2022/06/28 00:41:57;;;;;;;18.05;4.78;;;;;;;;;;6245732;28;20060;-76
2022/06/28 00:44:58;;;;;;;18.83;5.45;;;;;;;;;;6250211;28;20041;-76
2022/06/28 00:48:00;;;;;;;19.58;4.65;;;;;;;;;;6252155;28;20100;-76
2022/06/28 00:51:02;;;;;;;12.38;4.07;;;;;;;;;;6256597;28;20041;-76
2022/06/28 00:54:06;;;;;;;20.95;4.28;;;;;;;;;;6255283;28;20336;-76
2022/06/28 00:57:08;;;;;;;22.02;5.50;;;;;;;;;;6253188;28;20336;-76
2022/06/28 01:00:11;;;;;;;17.20;5.22;;;;;;;;;;6254562;28;20049;-75
2022/06/28 01:03:15;;;;;;;11.73;4.20;;;;;;;;;;6254785;28;20053;-76
2022/06/28 01:06:17;;;;;;;17.60;4.90;;;;;;;;;;6250106;28;20107;-76
2022/06/28 01:09:20;;;;;;;12.35;4.20;;;;;;;;;;6250377;28;20055;-76
2022/06/28 01:12:22;;;;;;;16.52;4.30;;;;;;;;;;6259173;28;20394;-76
2022/06/28 01:15:24;;;;;;;19.42;5.80;;;;;;;;;;6251925;28;20057;-76
2022/06/28 01:18:26;;;;;;;21.93;4.73;;;;;;;;;;6240619;28;20057;-76
2022/06/28 01:21:30;;;;;;;22.33;4.50;;;;;;;;;;6217130;28;20062;-74
2022/06/28 01:24:33;;;;;;;17.00;4.38;;;;;;;;;;6220682;28;20058;-76
2022/06/28 01:27:35;;;;;;;17.75;4.40;;;;;;;;;;6215185;28;20082;-75
2022/06/28 01:30:37;;;;;;;18.40;4.10;;;;;;;;;;6219748;28;20058;-76
2022/06/28 01:33:39;;;;;;;13.88;4.47;;;;;;;;;;6212584;28;20057;-75
2022/06/28 01:36:40;;;;;;;17.55;3.97;;;;;;;;;;6204569;28;20062;-75
2022/06/28 01:39:44;;;;;;;20.17;5.38;;;;;;;;;;6207450;28;20117;-76
2022/06/28 01:42:46;;;;;;;19.20;3.95;;;;;;;;;;6206832;28;20057;-75
2022/06/28 01:45:48;;;;;;;20.75;4.30;;;;;;;;;;6213818;28;20061;-75
2022/06/28 01:48:50;;;;;;;;;;;;;;;;;;6204583;28;20084;-76
2022/06/28 01:51:52;;;;;;;16.63;3.70;;;;;;;;;;6220785;28;20116;-75
2022/06/28 01:54:55;;;;;;;24.27;4.53;;;;;;;;;;6215724;28;20065;-76
2022/06/28 01:57:57;;;;;;;18.13;4.60;;;;;;;;;;6219036;28;20270;-76
2022/06/28 02:00:59;;;;;;;14.65;3.80;;;;;;;;;;6220507;28;20117;-76
2022/06/28 02:04:01;;;;;;;17.70;4.57;;;;;;;;;;6204034;28;20409;-76
2022/06/28 02:07:03;;;;;;;20.83;4.28;;;;;;;;;;6216623;28;20043;-77
2022/06/28 02:10:07;;;;;;;16.83;4.20;;;;;;;;;;6210932;28;20065;-75
2022/06/28 02:13:09;;;;;;;16.55;4.90;;;;;;;;;;6214982;28;20061;-75
2022/06/28 02:16:10;;;;;;;16.33;4.28;;;;;;;;;;6220341;28;20059;-75
2022/06/28 02:19:12;;;;;;;11.95;4.35;;;;;;;;;;6246267;28;20041;-76
2022/06/28 02:22:14;;;;;;;20.70;5.57;;;;;;;;;;6255931;28;20049;-75
2022/06/28 02:25:18;;;;;;;19.38;4.95;;;;;;;;;;6256622;28;20480;-79
2022/06/28 02:28:20;;;;;;;15.15;4.10;;;;;;;;;;6247013;28;20241;-76
2022/06/28 02:31:21;;;;;;;16.55;4.50;;;;;;;;;;6258659;28;20053;-76
2022/06/28 02:41:04;;;;;;;19.25;4.90;;;;;;;;;;6261708;28;20049;-75
2022/06/28 02:44:06;;;;;;;18.00;4.75;;;;;;;;;;6258603;28;20091;-75
2022/06/28 02:47:08;;;;;;;16.77;5.35;;;;;;;;;;6260697;28;20235;-77
2022/06/28 02:50:10;;;;;;;15.40;4.45;;;;;;;;;;6262707;28;20060;-76
2022/06/28 02:53:12;;;;;;;11.70;4.10;;;;;;;;;;6256497;28;20260;-76
2022/06/28 02:56:15;;;;;;;14.80;3.95;;;;;;;;;;6258617;28;20046;-76
2022/06/28 02:59:17;;;;;;;21.05;4.47;;;;;;;;;;6261603;28;20339;-75
2022/06/28 03:02:19;;;;;;;16.70;3.83;;;;;;;;;;6264782;28;20394;-75
2022/06/28 03:05:22;;;;;;;17.73;3.83;;;;;;;;;;6258880;28;20121;-75
2022/06/28 03:08:24;;;;;;;17.70;4.32;;;;;;;;;;6264100;28;20344;-76
2022/06/28 03:11:27;;;;;;;18.42;5.50;;;;;;;;;;6259075;28;20065;-74
2022/06/28 03:14:29;;;;;;;16.75;3.75;;;;;;;;;;6254827;28;20083;-75
2022/06/28 03:17:31;;;;;;;15.50;4.17;;;;;;;;;;6259217;28;20063;-75
2022/06/28 03:20:33;;;;;;;21.85;4.03;;;;;;;;;;6255802;28;20116;-76
2022/06/28 03:23:35;;;;;;;13.27;3.88;;;;;;;;;;6256120;28;20100;-76
2022/06/28 03:26:38;;;;;;;11.32;4.10;;;;;;;;;;6258081;28;20057;-76
2022/06/28 03:29:40;;;;;;;20.88;4.40;;;;;;;;;;6259028;28;20332;-76
2022/06/28 03:32:42;;;;;;;13.68;4.25;;;;;;;;;;6257809;28;20069;-76
2022/06/28 03:35:44;;;;;;;14.77;4.15;;;;;;;;;;6231512;28;20058;-76
2022/06/28 03:38:45;;;;;;;10.70;3.78;;;;;;;;;;6231433;28;20056;-75
2022/06/28 03:41:49;;;;;;;15.00;3.97;;;;;;;;;;6250684;28;20056;-76
2022/06/28 03:44:50;;;;;;;21.73;4.50;;;;;;;;;;6230617;28;20111;-75
2022/06/28 03:47:52;;;;;;;15.10;3.78;;;;;;;;;;6232375;28;20061;-76
2022/06/28 03:50:54;;;;;;;16.65;4.35;;;;;;;;;;6234284;28;20046;-75
2022/06/28 03:53:56;;;;;;;12.63;4.10;;;;;;;;;;6233667;28;20068;-76
2022/06/28 03:57:00;;;;;;;14.55;3.90;;;;;;;;;;6235971;28;20072;-76
2022/06/28 04:00:01;;;;;;;12.75;3.53;;;;;;;;;;6245301;28;20093;-77
2022/06/28 04:03:03;;;;;;;11.98;4.13;;;;;;;;;;6235817;28;20049;-76
2022/06/28 04:06:05;;;;;;;15.38;4.57;;;;;;;;;;6238716;28;20096;-76
2022/06/28 04:09:07;;;;;;;9.57;3.33;;;;;;;;;;6232855;28;20056;-75
2022/06/28 04:12:10;;;;;;;15.80;4.65;;;;;;;;;;6231449;28;20271;-76
2022/06/28 04:15:12;;;;;;;18.23;4.60;;;;;;;;;;6230917;28;20057;-75
2022/06/28 04:18:14;;;;;;;12.65;3.40;;;;;;;;;;6235183;28;20050;-76
2022/06/28 04:21:18;;;;;;;15.48;3.50;;;;;;;;;;6232749;28;20049;-77
2022/06/28 04:24:20;;;;;;;14.07;3.80;;;;;;;;;;6227992;28;20052;-75
2022/06/28 04:27:23;;;;;;;10.40;3.92;;;;;;;;;;6231504;28;20056;-75
2022/06/28 04:30:25;;;;;;;;;;;;;;;;;;6233206;28;20104;-76
2022/06/28 04:33:27;;;;;;;15.20;4.35;;;;;;;;;;6229205;28;19929;-75
2022/06/28 04:36:28;;;;;;;13.32;3.83;;;;;;;;;;6228419;28;20337;-75
2022/06/28 04:39:30;;;;;;;14.75;4.32;;;;;;;;;;6255248;28;20117;-73
2022/06/28 04:42:33;;;;;;;13.25;3.55;;;;;;;;;;6255372;28;20288;-82
2022/06/28 04:45:35;;;;;;;;;;;;;;;;;;6260467;28;20228;-81
2022/06/28 04:48:37;;;;;;;12.73;3.70;;;;;;;;;;6255696;28;19917;-78
2022/06/28 04:51:39;;;;;;;18.42;4.47;;;;;;;;;;6250284;28;20054;-79
2022/06/28 04:54:41;;;;;;;13.97;3.47;;;;;;;;;;6228660;28;20104;-80
2022/06/28 04:57:44;;;;;;;11.70;4.43;;;;;;;;;;6228968;28;20499;-77
2022/06/28 05:00:46;;;;;;;14.80;3.83;;;;;;;;;;6232195;28;20064;-79
2022/06/28 05:04:07;;;;;;;16.58;4.32;;;;;;;;;;6230003;28;20210;-78
2022/06/28 05:07:14;;;;;;;14.25;4.03;;;;;;;;;;6234565;28;20053;-78
2022/06/28 05:10:15;;;;;;;16.58;3.83;;;;;;;;;;6230879;28;20081;-79
2022/06/28 05:13:19;;;;;;;14.77;3.97;;;;;;;;;;6245930;28;20046;-79
2022/06/28 05:16:21;;;;;;;14.00;4.75;;;;;;;;;;6231641;28;20375;-79
2022/06/28 05:19:22;;;;;;;11.50;3.67;;;;;;;;;;6237031;28;20053;-79
2022/06/28 05:22:24;;;;;;;15.65;4.18;;;;;;;;;;6241822;28;20063;-77
2022/06/28 05:25:26;;;;;;;13.43;4.10;;;;;;;;;;6259854;28;20095;-79
2022/06/28 05:28:29;;;;;;;8.75;3.22;;;;;;;;;;6257633;28;20041;-79
2022/06/28 05:31:31;;;;;;;13.35;3.60;;;;;;;;;;6237275;28;20060;-77
2022/06/28 05:34:33;;;;;;;16.77;3.92;;;;;;;;;;6241035;28;20344;-79
2022/06/28 05:37:35;;;;;;;12.20;3.85;;;;;;;;;;6257756;28;20228;-80
2022/06/28 05:40:37;;;;;;;11.68;3.70;;;;;;;;;;6261543;28;20519;-79
2022/06/28 05:43:40;;;;;;;22.42;4.18;;;;;;;;;;6258201;28;20052;-79
2022/06/28 05:46:41;;;;;;;20.63;4.13;;;;;;;;;;6258882;28;20299;-79
2022/06/28 05:49:44;;;;;;;10.35;3.63;;;;;;;;;;6258051;28;20061;-79
2022/06/28 05:52:45;;;;;;;26.25;4.10;;;;;;;;;;6257449;28;20061;-78
2022/06/28 05:55:47;;;;;;;13.70;3.92;;;;;;;;;;6255429;28;20059;-79
2022/06/28 05:58:50;;;;;;;12.93;4.00;;;;;;;;;;6258807;28;20121;-79
2022/06/28 06:01:54;;;;;;;13.95;3.50;;;;;;;;;;6257781;28;20072;-79
2022/06/28 06:04:57;;;;;;;10.73;3.72;;;;;;;;;;6254532;28;20045;-79
2022/06/28 06:07:59;;;;;;;16.45;3.53;;;;;;;;;;6259103;28;20042;-79
2022/06/28 06:11:01;;;;;;;16.25;3.17;;;;;;;;;;6256541;28;20045;-85
2022/06/28 06:14:05;;;;;;;19.63;4.13;;;;;;;;;;6259298;28;20057;-73
2022/06/28 06:17:07;;;;;;;15.23;4.25;;;;;;;;;;6256086;28;20317;-79
2022/06/28 06:20:09;;;;;;;12.43;3.47;;;;;;;;;;6258477;28;20073;-82
2022/06/28 06:23:11;;;;;;;6.35;3.00;;;;;;;;;;6243229;28;20056;-81
2022/06/28 06:26:13;;;;;;;15.38;3.75;;;;;;;;;;6251668;28;20127;-81
2022/06/28 06:29:16;;;;;;;13.52;3.33;;;;;;;;;;6261450;28;20048;-84
2022/06/28 06:32:18;;;;;;;11.73;2.83;;;;;;;;;;6256931;28;20228;-76
2022/06/28 06:35:20;;;;;;;12.30;3.15;;;;;;;;;;6256847;28;20048;-77
2022/06/28 06:38:21;;;;;;;10.43;2.85;;;;;;;;;;6257360;28;20045;-77
2022/06/28 06:41:23;;;;;;;15.18;3.08;;;;;;;;;;6254618;28;20282;-82
2022/06/28 06:44:26;;;;;;;8.60;2.85;;;;;;;;;;6251892;28;20275;-81
2022/06/28 06:47:28;;;;;;;13.20;3.55;;;;;;;;;;6261286;28;20049;-81
2022/06/28 06:50:30;;;;;;;10.60;2.83;;;;;;;;;;6257494;28;20336;-81
2022/06/28 06:53:32;;;;;;;17.25;3.20;;;;;;;;;;6251500;28;20048;-80
2022/06/28 06:56:34;;;;;;;11.45;2.92;;;;;;;;;;6259153;28;20057;-82
2022/06/28 06:59:37;;;;;;;10.23;2.95;;;;;;;;;;6263324;28;20041;-79
2022/06/28 07:02:42;;;;;;;13.20;3.38;;;;;;;;;;6261805;28;20247;-81
2022/06/28 07:05:44;;;;;;;9.93;2.80;;;;;;;;;;6262734;28;20049;-83
2022/06/28 07:08:46;;;;;;;14.82;3.83;;;;;;;;;;6261820;28;20049;-85
2022/06/28 07:11:47;;;;;;;15.98;3.63;;;;;;;;;;6259179;28;20065;-85
2022/06/28 07:14:51;;;;;;;11.40;3.15;;;;;;;;;;6254848;28;20107;-76
2022/06/28 07:17:53;;;;;;;9.65;2.70;;;;;;;;;;6259544;28;20057;-76
2022/06/28 07:20:55;;;;;;;10.98;2.67;;;;;;;;;;6262657;28;20053;-76
2022/06/28 07:23:57;;;;;;;12.20;3.25;;;;;;;;;;6260128;28;20045;-81
2022/06/28 07:26:58;;;;;;;19.02;3.58;;;;;;;;;;6262932;28;20147;-78
2022/06/28 07:30:02;;;;;;;13.35;3.28;;;;;;;;;;6259609;28;20390;-78
2022/06/28 07:33:04;;;;;;;13.32;3.67;;;;;;;;;;6254166;28;20140;-75
2022/06/28 07:36:07;;;;;;;11.40;3.70;;;;;;;;;;6257915;28;20045;-77
2022/06/28 07:39:09;;;;;;;14.13;3.58;;;;;;;;;;6264620;28;20041;-76
2022/06/28 07:42:11;;;;;;;14.53;3.73;;;;;;;;;;6258688;28;20057;-75
2022/06/28 07:45:14;;;;;;;19.23;4.30;;;;;;;;;;6263367;28;20447;-76
2022/06/28 07:48:18;;;;;;;15.55;3.83;;;;;;;;;;6262392;28;21018;-76
2022/06/28 07:54:39;;;;;;;12.70;3.35;;;;;;;;;;6262593;28;20053;-76
2022/06/28 07:57:41;;;;;;;12.18;3.35;;;;;;;;;;6259146;28;20050;-76
2022/06/28 08:00:45;;;;;;;13.88;2.83;;;;;;;;;;6261453;28;20058;-76
2022/06/28 08:03:47;;;;;;;11.80;3.10;;;;;;;;;;6258884;28;20384;-76
2022/06/28 08:06:48;;;;;;;8.77;3.05;;;;;;;;;;6258772;28;20276;-76
2022/06/28 08:09:50;;;;;;;12.63;3.25;;;;;;;;;;6261854;28;20053;-76
2022/06/28 08:12:52;;;;;;;9.40;3.10;;;;;;;;;;6261428;28;20048;-76
2022/06/28 08:15:56;;;;;;;8.15;3.45;;;;;;;;;;6261233;28;20071;-76
2022/06/28 08:18:58;;;;;;;8.27;2.60;;;;;;;;;;6255053;28;20049;-76
2022/06/28 08:21:59;;;;;;;15.27;2.83;;;;;;;;;;6258267;28;20088;-76
2022/06/28 08:25:01;;;;;;;8.27;2.65;;;;;;;;;;6258195;28;20064;-76
2022/06/28 08:28:03;;;;;;;14.05;3.15;;;;;;;;;;6261871;28;20068;-77
2022/06/28 08:31:06;;;;;;;12.60;3.08;;;;;;;;;;6260927;28;20041;-76
2022/06/28 08:34:09;;;;;;;9.73;2.80;;;;;;;;;;6260562;28;20057;-76
2022/06/28 08:37:11;;;;;;;11.07;3.03;;;;;;;;;;6258647;28;20053;-76
2022/06/28 08:40:13;;;;;;;11.25;2.50;;;;;;;;;;6262166;28;20053;-76
2022/06/28 08:43:15;;;;;;;11.10;3.28;;;;;;;;;;6251609;28;20292;-76
2022/06/28 08:46:18;;;;;;;10.10;3.10;;;;;;;;;;6258626;28;20108;-76
2022/06/28 08:49:24;;;;;;;9.65;3.13;;;;;;;;;;6260213;28;20037;-76
2022/06/28 08:52:26;;;;;;;9.15;2.53;;;;;;;;;;6260158;28;20055;-75
2022/06/28 08:55:29;;;;;;;14.45;3.45;;;;;;;;;;6259405;28;20045;-77
2022/06/28 08:58:31;;;;;;;8.95;2.67;;;;;;;;;;6261332;28;20116;-76
2022/06/28 09:01:35;;;;;;;12.50;3.60;;;;;;;;;;6257187;28;20049;-76
2022/06/28 09:04:38;;;;;;;10.13;2.85;;;;;;;;;;6258219;28;20052;-76
2022/06/28 09:07:40;;;;;;;9.63;2.85;;;;;;;;;;6261022;28;20051;-76
2022/06/28 09:10:42;;;;;;;10.90;3.75;;;;;;;;;;6254034;28;20092;-75
2022/06/28 09:13:45;;;;;;;8.48;3.38;;;;;;;;;;6258935;28;20053;-77
2022/06/28 09:16:48;;;;;;;6.53;2.58;;;;;;;;;;6261919;28;20320;-76
2022/06/28 09:19:54;;;;;;;12.13;3.35;;;;;;;;;;6260161;28;20060;-75
2022/06/28 09:22:56;;;;;;;10.60;3.13;;;;;;;;;;6257744;28;20062;-76
2022/06/28 09:25:59;;;;;;;12.50;3.20;;;;;;;;;;6258308;28;20260;-76
2022/06/28 09:29:01;;;;;;;8.10;2.60;;;;;;;;;;6259302;28;20045;-76
2022/06/28 09:32:04;;;;;;;12.93;3.30;;;;;;;;;;6258222;28;20060;-76
2022/06/28 09:35:09;;;;;;;10.55;3.85;;;;;;;;;;6262465;28;20116;-76
2022/06/28 09:38:11;;;;;;;10.57;3.50;;;;;;;;;;6265115;28;20056;-76
2022/06/28 09:41:23;;;;;;;8.57;3.08;;;;;;;;;;6261699;28;20061;-77
2022/06/28 09:44:26;;;;;;;13.43;2.83;;;;;;;;;;6256902;28;20973;-76
2022/06/28 09:47:29;;;;;;;;;;;;;;;;;;6260445;28;20481;-76
2022/06/28 09:50:31;;;;;;;;;;;;;;;;;;6259482;28;19917;-75
2022/06/28 09:53:34;;;;;;;11.75;3.55;;;;;;;;;;6255322;28;20000;-76
2022/06/28 09:56:37;;;;;;;20.67;3.90;;;;;;;;;;6263834;28;20336;-75
2022/06/28 09:59:39;;;;;;;22.80;4.80;;;;;;;;;;6254827;28;20067;-74
2022/06/28 10:02:43;;;;;;;17.90;4.40;;;;;;;;;;6254425;28;20112;-74
2022/06/28 10:05:46;;;;;;;21.80;5.10;;;;;;;;;;6258179;28;20531;-74
2022/06/28 10:08:48;;;;;;;15.80;5.10;;;;;;;;;;6259393;28;20053;-74
2022/06/28 10:15:10;;;;;;;19.88;4.85;;;;;;;;;;6263979;28;20053;-74
2022/06/28 10:18:15;;;;;;;17.55;5.18;;;;;;;;;;6261679;28;20759;-74
2022/06/28 10:21:17;;;;;;;19.42;5.03;;;;;;;;;;6259758;28;20049;-74
2022/06/28 10:24:19;;;;;;;16.10;3.97;;;;;;;;;;6255934;28;20045;-75
2022/06/28 10:27:21;;;;;;;14.55;3.70;;;;;;;;;;6257010;28;20068;-78
2022/06/28 10:30:25;;;;;;;17.92;4.60;;;;;;;;;;6259054;28;20264;-77
2022/06/28 10:33:41;;;;;;;13.60;4.45;;;;;;;;;;6261460;28;20068;-76
2022/06/28 10:36:45;;;;;;;13.70;4.55;;;;;;;;;;6263251;28;20395;-75
2022/06/28 10:39:47;;;;;;;12.25;4.28;;;;;;;;;;6263067;28;20053;-78
2022/06/28 10:42:50;;;;;;;11.27;4.05;;;;;;;;;;6257797;28;20147;-77
2022/06/28 10:46:08;;;;;;;13.38;4.30;;;;;;;;;;6266866;28;20057;-83
2022/06/28 10:49:12;;;;;;;16.85;3.60;;;;;;;;;;6259542;28;20117;-83
2022/06/28 10:52:15;;;;;;;14.75;3.90;;;;;;;;;;6255283;28;20080;-83
2022/06/28 10:55:23;;;;;;;16.27;3.55;;;;;;;;;;6261382;28;20054;-79
2022/06/28 10:58:24;;;;;;;9.98;3.88;;;;;;;;;;6259918;28;20104;-73
2022/06/28 11:01:55;;;;;;;14.68;4.32;;;;;;;;;;6260072;28;20061;-73
2022/06/28 11:05:07;;;;;;;17.55;4.68;;;;;;;;;;6261465;28;20144;-73
2022/06/28 11:08:09;;;;;;;13.90;4.47;;;;;;;;;;6256850;28;20061;-75
2022/06/28 11:11:11;;;;;;;14.02;5.72;;;;;;;;;;6257688;28;20463;-74
2022/06/28 11:14:28;;;;;;;14.52;5.10;;;;;;;;;;6261157;28;20073;-73
2022/06/28 11:17:32;;;;;;;14.60;5.68;;;;;;;;;;6258450;28;20121;-76
2022/06/28 11:20:35;;;;;;;11.75;4.57;;;;;;;;;;6267876;28;20051;-78
2022/06/28 11:23:36;;;;;;;14.13;4.10;;;;;;;;;;6259668;28;20045;-79
2022/06/28 11:30:05;;;;;;;14.35;5.70;;;;;;;;;;6254702;28;20054;-76
2022/06/28 11:33:08;;;;;;;15.98;5.43;;;;;;;;;;6255663;28;20052;-77
2022/06/28 11:36:20;;;;;;;13.05;4.85;;;;;;;;;;6261199;28;20089;-77
2022/06/28 11:39:24;;;;;;;18.08;5.07;;;;;;;;;;6264221;28;20251;-77
2022/06/28 11:42:25;;;;;;;;;;;;;;;;;;6257328;28;20041;-78
2022/06/28 11:45:28;;;;;;;11.52;4.50;;;;;;;;;;6262164;28;19921;-73
2022/06/28 11:48:31;;;;;;;16.65;4.72;;;;;;;;;;6256076;28;20064;-74
2022/06/28 11:51:34;;;;;;;;;;;;;;;;;;6255237;28;20056;-74
2022/06/28 11:54:36;;;;;;;13.43;4.20;;;;;;;;;;6259361;28;20143;-74
2022/06/28 11:57:39;;;;;;;12.68;4.00;;;;;;;;;;6263882;28;20571;-74
2022/06/28 12:00:41;;;;;;;13.30;4.00;;;;;;;;;;6255667;28;20077;-74
2022/06/28 12:03:56;;;;;;;12.13;3.95;;;;;;;;;;6262734;28;20060;-74
2022/06/28 12:07:00;;;;;;;12.48;4.00;;;;;;;;;;6261030;28;20095;-74
2022/06/28 12:10:02;;;;;;;12.57;4.68;;;;;;;;;;6261893;28;20080;-74
2022/06/28 12:13:12;;;;;;;16.97;4.70;;;;;;;;;;6258731;28;20060;-75
2022/06/28 12:16:14;;;;;;;12.23;4.05;;;;;;;;;;6256771;28;20049;-74
2022/06/28 12:19:17;;;;;;;14.50;4.15;;;;;;;;;;6257719;28;20157;-74
2022/06/28 12:22:23;;;;;;;16.73;3.95;;;;;;;;;;6259580;28;20050;-75
2022/06/28 12:25:25;;;;;;;11.85;4.55;;;;;;;;;;6262606;28;20053;-75
2022/06/28 12:28:26;;;;;;;16.80;4.30;;;;;;;;;;6258972;28;20364;-75
2022/06/28 12:31:28;;;;;;;13.93;4.57;;;;;;;;;;6255902;28;20108;-74
2022/06/28 12:34:30;;;;;;;10.65;4.40;;;;;;;;;;6257824;28;20061;-75
2022/06/28 12:37:33;;;;;;;11.88;4.18;;;;;;;;;;6257492;28;20065;-74
2022/06/28 12:40:35;;;;;;;134.98;89.20;;;;;;;;;;6256806;28;20056;-75
2022/06/28 12:43:37;;;;;;;32.85;21.77;;;;;;;;;;6259978;28;20049;-74
2022/06/28 12:46:39;;;;;;;12.02;5.25;;;;;;;;;;6255925;28;20072;-74
2022/06/28 12:49:42;;;;;;;42.28;22.58;;;;;;;;;;6258804;28;20056;-75
2022/06/28 12:52:46;;;;;;;197.67;111.37;;;;;;;;;;6260187;28;20056;-74
2022/06/28 12:55:47;;;;;;;84.45;45.13;;;;;;;;;;6256471;28;20064;-75
2022/06/28 12:58:49;;;;;;;67.67;36.87;;;;;;;;;;6257454;28;20057;-75
2022/06/28 13:01:51;;;;;;;12.00;4.82;;;;;;;;;;6260002;28;20049;-75
2022/06/28 13:04:53;;;;;;;9.45;3.80;;;;;;;;;;6255985;28;20053;-75
2022/06/28 13:07:57;;;;;;;12.40;3.15;;;;;;;;;;6259988;28;20227;-75
2022/06/28 13:10:59;;;;;;;11.68;3.20;;;;;;;;;;6259871;28;20049;-76
2022/06/28 13:14:00;;;;;;;10.07;3.40;;;;;;;;;;6257917;28;20061;-75
2022/06/28 13:17:02;;;;;;;13.43;4.10;;;;;;;;;;6263047;28;20315;-75
2022/06/28 13:20:06;;;;;;;8.68;2.83;;;;;;;;;;6257820;28;20045;-75
2022/06/28 13:23:09;;;;;;;12.73;3.30;;;;;;;;;;6260713;28;20072;-73
2022/06/28 13:26:11;;;;;;;10.93;3.45;;;;;;;;;;6258279;28;20064;-75
2022/06/28 13:29:13;;;;;;;8.55;2.92;;;;;;;;;;6257606;28;20107;-75
2022/06/28 13:32:14;;;;;;;12.07;3.50;;;;;;;;;;6259939;28;20328;-75
2022/06/28 13:35:16;;;;;;;8.77;3.50;;;;;;;;;;6257265;28;20084;-75
2022/06/28 13:38:19;;;;;;;7.25;3.00;;;;;;;;;;6258358;28;20103;-75
2022/06/28 13:41:22;;;;;;;10.90;3.33;;;;;;;;;;6253666;28;20112;-75
2022/06/28 13:44:23;;;;;;;;;;;;;;;;;;6259372;28;20049;-75
2022/06/28 13:47:25;;;;;;;11.48;3.08;;;;;;;;;;6258865;28;19924;-75
2022/06/28 13:50:27;;;;;;;13.45;4.43;;;;;;;;;;6257611;28;20264;-74
2022/06/28 13:53:32;;;;;;;12.07;3.25;;;;;;;;;;6261362;28;20048;-75
2022/06/28 13:56:34;;;;;;;10.40;3.20;;;;;;;;;;6258041;28;20057;-75
2022/06/28 13:59:36;;;;;;;14.05;3.63;;;;;;;;;;6258851;28;20344;-75
2022/06/28 14:02:38;;;;;;;9.80;2.80;;;;;;;;;;6255483;28;20053;-74
2022/06/28 14:05:40;;;;;;;;;;;;;;;;;;6253210;28;20112;-75
2022/06/28 14:08:43;;;;;;;7.43;2.85;;;;;;;;;;6263457;28;19951;-75
2022/06/28 14:11:45;;;;;;;11.95;3.28;;;;;;;;;;6259384;28;20060;-75
2022/06/28 14:14:46;;;;;;;11.15;2.78;;;;;;;;;;6263709;28;20081;-75
2022/06/28 14:17:48;;;;;;;8.00;3.08;;;;;;;;;;6263440;28;20041;-75
2022/06/28 14:20:50;;;;;;;6.45;3.05;;;;;;;;;;6258055;28;20053;-75
2022/06/28 14:23:53;;;;;;;13.82;3.88;;;;;;;;;;6257475;28;20053;-75
2022/06/28 14:26:55;;;;;;;8.90;3.10;;;;;;;;;;6260418;28;20218;-75
2022/06/28 14:29:57;;;;;;;12.75;3.55;;;;;;;;;;6258583;28;20053;-75
2022/06/28 14:33:01;;;;;;;9.77;2.45;;;;;;;;;;6262474;28;20056;-75
2022/06/28 14:36:02;;;;;;;8.18;3.03;;;;;;;;;;6267570;28;20068;-75
2022/06/28 14:39:06;;;;;;;7.68;2.88;;;;;;;;;;6257163;28;20041;-75
2022/06/28 14:42:08;;;;;;;10.13;3.28;;;;;;;;;;6259697;28;20071;-75
2022/06/28 14:45:10;;;;;;;10.73;3.08;;;;;;;;;;6262987;28;20214;-75
2022/06/28 14:48:12;;;;;;;12.10;3.15;;;;;;;;;;6264135;28;20089;-75
2022/06/28 14:51:14;;;;;;;12.93;3.70;;;;;;;;;;6264126;28;20046;-75
2022/06/28 14:54:17;;;;;;;9.03;2.73;;;;;;;;;;6267352;28;20045;-75
2022/06/28 14:57:19;;;;;;;7.72;3.20;;;;;;;;;;6259012;28;20447;-75
2022/06/28 15:00:20;;;;;;;11.95;3.15;;;;;;;;;;6256337;28;20049;-75
2022/06/28 15:03:22;;;;;;;11.50;3.40;;;;;;;;;;6255764;28;20067;-75
2022/06/28 15:06:24;;;;;;;9.35;3.88;;;;;;;;;;6263781;28;20047;-75
2022/06/28 15:09:30;;;;;;;14.35;3.75;;;;;;;;;;6260959;28;20069;-75
2022/06/28 15:12:32;;;;;;;10.80;3.28;;;;;;;;;;6258959;28;20045;-74
2022/06/28 15:15:33;;;;;;;14.77;3.80;;;;;;;;;;6258179;28;20104;-74
2022/06/28 15:18:35;;;;;;;13.50;3.87;;;;;;;;;;6261245;28;20049;-74
2022/06/28 15:31:35;;;;;;;12.55;4.00;;;;;;;;;;6247765;28;20120;-77
2022/06/28 15:34:37;;;;;;;19.00;5.23;;;;;;;;;;6242734;28;20045;-75
2022/06/28 15:37:39;;;;;;;21.30;5.47;;;;;;;;;;6245886;28;20509;-74
2022/06/28 15:40:42;;;;;;;15.60;4.37;;;;;;;;;;6242982;28;20045;-76
2022/06/28 15:43:43;;;;;;;14.20;4.57;;;;;;;;;;6252934;28;20057;-74
2022/06/28 15:46:45;;;;;;;15.40;4.47;;;;;;;;;;6254279;28;20052;-77
2022/06/28 15:49:47;;;;;;;17.20;4.63;;;;;;;;;;6249262;28;20056;-79
2022/06/28 15:52:49;;;;;;;13.27;4.18;;;;;;;;;;6251305;28;20049;-78
2022/06/28 15:55:52;;;;;;;11.97;4.47;;;;;;;;;;6250469;28;20725;-80
2022/06/28 15:58:54;;;;;;;14.93;4.47;;;;;;;;;;6245632;28;20475;-78
2022/06/28 16:01:56;;;;;;;18.47;4.87;;;;;;;;;;6243256;28;20059;-77
2022/06/28 16:04:57;;;;;;;11.23;3.87;;;;;;;;;;6245279;28;20104;-77
2022/06/28 16:07:59;;;;;;;13.70;4.63;;;;;;;;;;6246477;28;20060;-79
2022/06/28 16:11:02;;;;;;;15.27;4.70;;;;;;;;;;6241756;28;20058;-77
2022/06/28 16:14:04;;;;;;;16.02;4.55;;;;;;;;;;6241798;28;20472;-77
2022/06/28 16:17:06;;;;;;;14.00;4.00;;;;;;;;;;6244013;28;20077;-78
2022/06/28 16:20:08;;;;;;;15.50;3.67;;;;;;;;;;6243406;28;20473;-79
2022/06/28 16:23:10;;;;;;;17.95;4.65;;;;;;;;;;6245258;28;20056;-78
2022/06/28 16:26:13;;;;;;;16.60;4.43;;;;;;;;;;6245607;28;20122;-78
2022/06/28 16:29:15;;;;;;;15.90;4.07;;;;;;;;;;6244296;28;20049;-78
2022/06/28 16:32:17;;;;;;;13.33;4.13;;;;;;;;;;6241166;28;20053;-78
2022/06/28 16:35:20;;;;;;;12.73;4.10;;;;;;;;;;6240500;28;20050;-78
2022/06/28 16:38:22;;;;;;;17.80;4.28;;;;;;;;;;6245806;28;20745;-77
2022/06/28 16:41:25;;;;;;;15.73;4.70;;;;;;;;;;6253728;28;20052;-78
2022/06/28 16:44:27;;;;;;;12.65;3.55;;;;;;;;;;6251922;28;20080;-79
2022/06/28 16:47:29;;;;;;;17.07;4.17;;;;;;;;;;6258322;28;20053;-74
2022/06/28 16:50:30;;;;;;;12.05;4.45;;;;;;;;;;6259524;28;20514;-76
2022/06/28 16:53:32;;;;;;;18.07;4.33;;;;;;;;;;6258945;28;20274;-79
2022/06/28 16:56:35;;;;;;;15.93;5.23;;;;;;;;;;6249990;28;20062;-80
2022/06/28 16:59:37;;;;;;;14.02;4.10;;;;;;;;;;6252245;28;20057;-79
2022/06/28 17:02:39;;;;;;;28.58;4.72;;;;;;;;;;6252649;28;20049;-79
2022/06/28 17:05:41;;;;;;;20.23;4.00;;;;;;;;;;6258086;28;20099;-76
2022/06/28 17:08:43;;;;;;;17.73;4.38;;;;;;;;;;6253588;28;20042;-79
2022/06/28 17:11:46;;;;;;;12.17;3.80;;;;;;;;;;6252237;28;20049;-77
2022/06/28 17:14:47;;;;;;;12.32;4.35;;;;;;;;;;6253424;28;20044;-76
2022/06/28 17:17:49;;;;;;;13.73;4.27;;;;;;;;;;6251480;28;20236;-77
2022/06/28 17:20:51;;;;;;;17.93;4.30;;;;;;;;;;6256524;28;20046;-78
2022/06/28 17:23:53;;;;;;;17.50;4.45;;;;;;;;;;6266784;28;20048;-78
2022/06/28 17:26:56;;;;;;;17.75;4.15;;;;;;;;;;6261386;28;20159;-78
2022/06/28 17:29:58;;;;;;;22.83;4.43;;;;;;;;;;6258013;28;20053;-79
2022/06/28 17:33:00;;;;;;;14.27;4.00;;;;;;;;;;6254741;28;20137;-78
2022/06/28 17:36:02;;;;;;;18.47;4.43;;;;;;;;;;6251518;28;20057;-77
2022/06/28 17:39:04;;;;;;;10.95;3.95;;;;;;;;;;6257537;28;20048;-78
2022/06/28 17:42:08;;;;;;;19.75;4.82;;;;;;;;;;6251655;28;20057;-77
2022/06/28 17:45:13;;;;;;;15.85;4.70;;;;;;;;;;6259506;28;20045;-79
2022/06/28 17:48:15;;;;;;;18.42;4.18;;;;;;;;;;6255527;28;20113;-78
2022/06/28 17:51:17;;;;;;;16.67;4.38;;;;;;;;;;6253716;28;20476;-78
2022/06/28 17:54:20;;;;;;;16.30;4.60;;;;;;;;;;6254085;28;20056;-79
2022/06/28 17:57:24;;;;;;;17.45;4.60;;;;;;;;;;6251920;28;20067;-78
2022/06/28 18:00:25;;;;;;;9.85;3.92;;;;;;;;;;6254097;28;20052;-77
2022/06/28 18:03:27;;;;;;;10.07;3.20;;;;;;;;;;6252157;28;20104;-78
2022/06/28 18:06:29;;;;;;;10.20;3.43;;;;;;;;;;6261564;28;20332;-80
2022/06/28 18:09:32;;;;;;;9.45;2.50;;;;;;;;;;6258648;28;20053;-78
2022/06/28 18:12:36;;;;;;;10.30;2.80;;;;;;;;;;6255953;28;20092;-78
2022/06/28 18:15:37;;;;;;;11.90;3.72;;;;;;;;;;6254807;28;20072;-76
2022/06/28 18:18:39;;;;;;;7.55;2.33;;;;;;;;;;6255732;28;20333;-78
2022/06/28 18:21:41;;;;;;;7.40;2.00;;;;;;;;;;6253780;28;20053;-78
2022/06/28 18:24:42;;;;;;;5.13;2.10;;;;;;;;;;6252407;28;20046;-77
2022/06/28 18:27:45;;;;;;;8.32;1.90;;;;;;;;;;6256955;28;20049;-79
2022/06/28 18:30:47;;;;;;;8.38;2.05;;;;;;;;;;6252031;28;20324;-79
2022/06/28 18:33:52;;;;;;;5.13;1.77;;;;;;;;;;6255105;28;20037;-77